This is the latest recevied weather packets stored in our database for station/object VA3BOO. If no packets are shown the sender has not sent any weather packets the latest 1 day(s).
| Time | Temp. | Humidity | Pressure | Rain* | Wind** | Luminosity | Snow |
|---|---|---|---|---|---|---|---|
| 1777974604 | 12.22° C | 89% | 1000.3 hPa | 1.78 mm | 0.45 m/s, 158° | 0 W/m² | - |
| 1777974304 | 12.22° C | 88% | 1000.3 hPa | 1.78 mm | 0.45 m/s, 161° | 0 W/m² | - |
| 1777974004 | 12.78° C | 87% | 1000.2 hPa | 1.78 mm | 0.45 m/s, 220° | 0 W/m² | - |
| 1777973704 | 12.78° C | 87% | 1000 hPa | 1.78 mm | 0.89 m/s, 217° | 0 W/m² | - |
| 1777973404 | 12.78° C | 87% | 1000 hPa | 1.52 mm | 0.89 m/s, 221° | 0 W/m² | - |
| 1777973104 | 12.78° C | 88% | 1000 hPa | 1.52 mm | 0.89 m/s, 209° | 0 W/m² | - |
| 1777972804 | 12.22° C | 88% | 1000.2 hPa | 1.52 mm | 0.45 m/s, 151° | 0 W/m² | - |
| 1777972504 | 12.78° C | 85% | 1000.2 hPa | 1.52 mm | 0.45 m/s, 164° | 0 W/m² | - |
| 1777972204 | 13.33° C | 81% | 1000.7 hPa | 0.76 mm | 0.45 m/s, 167° | 0 W/m² | - |
| 1777971904 | 13.89° C | 76% | 1000.4 hPa | 0.25 mm | 0.89 m/s, 163° | 0 W/m² | - |
| 1777971604 | 13.89° C | 74% | 1000.5 hPa | 0 mm | 0.89 m/s, 159° | 0 W/m² | - |
| 1777971304 | 13.89° C | 74% | 1000.4 hPa | 0 mm | 0.89 m/s, 160° | 0 W/m² | - |
| 1777971004 | 13.33° C | 76% | 1000.5 hPa | 0 mm | 0.45 m/s, 174° | 0 W/m² | - |
| 1777970704 | 13.33° C | 76% | 1000.5 hPa | 0 mm | 0.45 m/s, 195° | 0 W/m² | - |
| 1777970404 | 13.33° C | 75% | 1000.6 hPa | 0 mm | 0.45 m/s, 174° | 0 W/m² | - |
| 1777970104 | 13.33° C | 75% | 1000.9 hPa | 0 mm | 0.45 m/s, 152° | 0 W/m² | - |
| 1777969804 | 13.33° C | 75% | 1000.7 hPa | 0 mm | 0.45 m/s, 146° | 0 W/m² | - |
| 1777969504 | 13.33° C | 75% | 1001 hPa | 0 mm | 0.89 m/s, 152° | 0 W/m² | - |
| 1777969204 | 12.78° C | 74% | 1001 hPa | 0 mm | 0.89 m/s, 175° | 0 W/m² | - |
| 1777968904 | 12.78° C | 75% | 1000.8 hPa | 0 mm | 0.45 m/s, 197° | 0 W/m² | - |
| 1777968604 | 12.78° C | 76% | 1000.9 hPa | 0 mm | 0.45 m/s, 214° | 0 W/m² | - |
| 1777968304 | 12.78° C | 75% | 1001.1 hPa | 0 mm | 0.45 m/s, 216° | 0 W/m² | - |
| 1777968004 | 12.78° C | 75% | 1000.9 hPa | 0 mm | 0.45 m/s, 178° | 0 W/m² | - |
| 1777967704 | 12.22° C | 75% | 1000.9 hPa | 0 mm | 0.45 m/s, 172° | 0 W/m² | - |
| 1777967404 | 12.22° C | 76% | 1000.9 hPa | 0 mm | 0.45 m/s, 250° | 0 W/m² | - |
* Rain latest hour (hover to see other rain measurements)
** Current wind speed in m/s (hover to see current wind gust speed)